createdAt,value
2018-12-29T00:00:48.151Z,55.77
2018-12-29T00:03:16.997Z,56.30
2018-12-29T00:05:46.368Z,57.00
2018-12-29T00:08:15.295Z,56.40
2018-12-29T00:10:45.580Z,57.40
2018-12-29T00:13:14.363Z,57.43
2018-12-29T00:15:43.176Z,57.10
2018-12-29T00:18:11.983Z,60.47
2018-12-29T00:20:40.772Z,56.17
2018-12-29T00:23:09.563Z,52.17
2018-12-29T00:25:38.426Z,55.60
2018-12-29T00:28:07.219Z,54.63
2018-12-29T00:30:37.122Z,55.53
2018-12-29T00:33:05.935Z,57.23
2018-12-29T00:35:34.770Z,53.50
2018-12-29T00:38:03.623Z,58.10
2018-12-29T00:40:32.412Z,57.17
2018-12-29T00:43:01.244Z,56.00
2018-12-29T00:45:30.115Z,51.60
2018-12-29T00:47:58.966Z,54.53
2018-12-29T00:50:27.816Z,52.77
2018-12-29T00:52:56.847Z,54.80
2018-12-29T00:55:25.728Z,55.40
2018-12-29T00:57:54.522Z,55.27
2018-12-29T01:00:23.410Z,51.63
2018-12-29T01:02:52.253Z,54.10
2018-12-29T01:05:21.039Z,52.27
2018-12-29T01:07:49.878Z,53.27
2018-12-29T01:10:18.667Z,53.70
2018-12-29T01:12:47.463Z,56.73
2018-12-29T01:15:16.264Z,56.97
2018-12-29T01:17:45.675Z,53.93
2018-12-29T01:20:15.117Z,56.00
2018-12-29T01:22:43.940Z,56.27
2018-12-29T01:25:13.723Z,54.40
2018-12-29T01:27:43.066Z,54.47
2018-12-29T01:30:11.837Z,55.90
2018-12-29T01:32:40.635Z,53.97
2018-12-29T01:35:09.432Z,49.77
2018-12-29T01:37:38.935Z,50.47
2018-12-29T01:40:07.812Z,52.93
2018-12-29T01:42:36.587Z,50.27
2018-12-29T01:45:05.720Z,52.90
2018-12-29T01:47:34.563Z,52.77
2018-12-29T01:50:03.361Z,53.43
2018-12-29T01:52:32.143Z,51.77
2018-12-29T01:55:00.979Z,50.70
2018-12-29T01:57:29.980Z,49.57
2018-12-29T01:59:58.809Z,53.37
2018-12-29T02:02:27.620Z,53.47
2018-12-29T02:04:56.431Z,52.17
2018-12-29T02:07:25.267Z,49.70
2018-12-29T02:09:54.052Z,49.80
2018-12-29T02:12:23.273Z,49.87
2018-12-29T02:14:52.080Z,46.30
2018-12-29T02:17:20.869Z,48.77
2018-12-29T02:19:49.664Z,49.27
2018-12-29T02:22:18.492Z,47.73
2018-12-29T02:24:47.322Z,50.37
2018-12-29T02:27:16.202Z,52.33
2018-12-29T02:29:44.997Z,48.83
2018-12-29T02:32:13.883Z,47.37
2018-12-29T02:34:42.724Z,49.10
2018-12-29T02:37:11.555Z,46.93
2018-12-29T02:39:40.356Z,46.17
2018-12-29T02:42:09.883Z,50.00
2018-12-29T02:44:40.419Z,48.37
2018-12-29T02:47:09.280Z,46.93
2018-12-29T02:49:38.076Z,47.83
2018-12-29T02:52:06.965Z,45.90
2018-12-29T02:54:35.825Z,49.70
2018-12-29T02:57:04.627Z,46.47
2018-12-29T02:59:34.379Z,47.20
2018-12-29T03:02:03.958Z,45.87
2018-12-29T03:04:32.747Z,50.97
2018-12-29T03:07:02.707Z,45.20
2018-12-29T03:09:32.392Z,50.40
2018-12-29T03:12:01.538Z,48.77
2018-12-29T03:14:30.347Z,49.43
2018-12-29T03:16:59.221Z,47.80
2018-12-29T03:19:29.319Z,47.63
2018-12-29T03:21:58.234Z,48.93
2018-12-29T03:24:27.151Z,48.87
2018-12-29T03:26:56.690Z,50.10
2018-12-29T03:29:25.550Z,48.63
2018-12-29T03:31:54.394Z,47.30
2018-12-29T03:34:23.176Z,50.80
2018-12-29T03:36:52.018Z,49.43
2018-12-29T03:39:20.815Z,49.60
2018-12-29T03:41:49.643Z,47.70
2018-12-29T03:44:18.452Z,46.93
2018-12-29T03:46:47.296Z,47.13
2018-12-29T03:49:16.962Z,48.90
2018-12-29T03:51:45.775Z,48.67
2018-12-29T03:54:14.563Z,48.73
2018-12-29T03:56:43.847Z,46.10
2018-12-29T03:59:13.330Z,48.33
2018-12-29T04:01:42.139Z,46.70
2018-12-29T04:04:11.020Z,47.60
2018-12-29T04:06:41.557Z,51.40
2018-12-29T04:09:25.696Z,47.23
2018-12-29T04:11:54.495Z,48.47
2018-12-29T04:14:24.447Z,48.00
2018-12-29T04:16:54.289Z,50.07
2018-12-29T04:19:23.158Z,44.47
2018-12-29T04:21:52.799Z,47.97
2018-12-29T04:24:22.453Z,45.73
2018-12-29T04:26:51.273Z,44.60
2018-12-29T04:29:20.155Z,43.77
2018-12-29T04:31:48.971Z,46.33
2018-12-29T04:34:17.799Z,45.87
2018-12-29T04:36:47.432Z,44.83
2018-12-29T04:39:16.251Z,45.20
2018-12-29T04:41:45.147Z,43.60
2018-12-29T04:44:13.938Z,46.27
2018-12-29T04:46:42.904Z,44.73
2018-12-29T04:49:11.744Z,44.90
2018-12-29T04:51:40.533Z,42.57
2018-12-29T04:54:09.437Z,43.03
2018-12-29T04:56:38.237Z,44.20
2018-12-29T04:59:07.086Z,43.17
2018-12-29T05:01:36.543Z,42.33
2018-12-29T05:04:05.431Z,41.67
2018-12-29T05:06:34.231Z,43.43
2018-12-29T05:09:03.062Z,42.80
2018-12-29T05:11:32.545Z,43.00
2018-12-29T05:14:02.424Z,41.10
2018-12-29T05:16:31.562Z,42.23
2018-12-29T05:19:00.447Z,43.23
2018-12-29T05:21:30.135Z,44.17
2018-12-29T05:23:58.987Z,41.30
2018-12-29T05:26:29.130Z,42.23
2018-12-29T05:28:57.882Z,45.00
2018-12-29T05:31:26.744Z,42.63
2018-12-29T05:33:55.596Z,42.47
2018-12-29T05:36:24.425Z,39.33
2018-12-29T05:38:53.206Z,42.47
2018-12-29T05:41:22.876Z,42.77
2018-12-29T05:43:51.714Z,41.70
2018-12-29T05:46:20.785Z,41.17
2018-12-29T05:48:50.589Z,39.87
2018-12-29T05:51:19.489Z,39.47
2018-12-29T05:53:48.315Z,41.03
2018-12-29T05:56:17.942Z,39.67
2018-12-29T05:58:45.946Z,39.90
2018-12-29T06:01:14.842Z,40.23
2018-12-29T06:03:43.631Z,39.77
2018-12-29T06:06:13.774Z,38.07
2018-12-29T06:08:43.547Z,38.20
2018-12-29T06:11:12.375Z,39.67
2018-12-29T06:13:41.167Z,38.90
2018-12-29T06:16:11.676Z,39.10
2018-12-29T06:18:40.883Z,40.47
2018-12-29T06:21:09.640Z,37.47
2018-12-29T06:23:38.480Z,35.90
2018-12-29T06:26:07.267Z,38.40
2018-12-29T06:28:36.144Z,37.37
2018-12-29T06:31:05.015Z,36.27
2018-12-29T06:33:37.861Z,36.80
2018-12-29T06:36:06.684Z,37.20
2018-12-29T06:38:35.460Z,36.60
2018-12-29T06:41:04.280Z,37.20
2018-12-29T06:43:33.437Z,36.67
2018-12-29T06:46:02.210Z,37.07
2018-12-29T06:48:31.062Z,36.40
2018-12-29T06:50:59.928Z,38.73
2018-12-29T06:53:29.307Z,39.13
2018-12-29T06:55:58.172Z,34.27
2018-12-29T06:58:27.039Z,34.47
2018-12-29T07:00:55.820Z,35.90
2018-12-29T07:03:25.415Z,37.00
2018-12-29T07:05:54.246Z,37.30
2018-12-29T07:08:23.039Z,38.63
2018-12-29T07:10:52.760Z,35.20
2018-12-29T07:13:23.430Z,33.80
2018-12-29T07:15:52.479Z,37.10
2018-12-29T07:18:21.256Z,35.77
2018-12-29T07:20:50.098Z,36.60
2018-12-29T07:23:18.927Z,37.90
2018-12-29T07:25:47.825Z,35.17
2018-12-29T07:28:16.648Z,33.87
2018-12-29T07:30:45.550Z,37.90
2018-12-29T07:33:14.339Z,36.07
2018-12-29T07:35:43.935Z,35.03
2018-12-29T07:38:13.359Z,35.27
2018-12-29T07:40:42.524Z,36.13
2018-12-29T07:43:11.311Z,35.50
2018-12-29T07:45:40.203Z,34.63
2018-12-29T07:48:09.060Z,37.93
2018-12-29T07:50:37.925Z,41.13
2018-12-29T07:53:08.548Z,38.47
2018-12-29T07:55:37.345Z,35.93
2018-12-29T07:58:06.221Z,34.93
2018-12-29T08:00:35.089Z,36.33
2018-12-29T08:03:03.844Z,36.77
2018-12-29T08:05:33.389Z,35.23
2018-12-29T08:08:02.911Z,34.23
2018-12-29T08:10:32.605Z,37.77
2018-12-29T08:13:01.403Z,36.30
2018-12-29T08:15:30.303Z,37.70
2018-12-29T08:17:59.495Z,36.77
2018-12-29T08:20:30.050Z,38.07
2018-12-29T08:22:58.856Z,34.73
2018-12-29T08:25:27.724Z,36.13
2018-12-29T08:27:56.609Z,35.53
2018-12-29T08:30:25.419Z,34.57
2018-12-29T08:32:54.205Z,36.50
2018-12-29T08:35:22.987Z,35.17
2018-12-29T08:37:52.264Z,35.40
2018-12-29T08:40:22.131Z,34.83
2018-12-29T08:42:52.408Z,35.63
2018-12-29T08:45:21.208Z,35.93
2018-12-29T08:47:50.004Z,34.73
2018-12-29T08:50:18.782Z,34.97
2018-12-29T08:52:47.587Z,35.73
2018-12-29T08:56:53.139Z,33.13
2018-12-29T08:59:21.942Z,33.57
2018-12-29T09:01:51.389Z,34.80
2018-12-29T09:04:20.182Z,31.50
2018-12-29T09:06:49.271Z,30.67
2018-12-29T09:09:18.086Z,33.10
2018-12-29T09:11:46.892Z,30.20
2018-12-29T09:14:16.283Z,33.77
2018-12-29T09:16:45.083Z,37.13
2018-12-29T09:19:13.931Z,36.27
2018-12-29T09:21:42.742Z,32.60
2018-12-29T09:24:12.176Z,31.40
2018-12-29T09:26:41.012Z,31.07
2018-12-29T09:29:10.514Z,29.93
2018-12-29T09:31:40.539Z,29.83
2018-12-29T09:34:09.336Z,32.10
2018-12-29T09:36:38.212Z,30.27
2018-12-29T09:39:07.639Z,33.77
2018-12-29T09:41:36.452Z,30.60
2018-12-29T09:44:05.264Z,30.77
2018-12-29T09:46:34.071Z,29.87
2018-12-29T09:49:03.839Z,32.47
2018-12-29T09:51:32.635Z,30.13
2018-12-29T09:56:36.426Z,29.80
2018-12-29T09:59:05.217Z,30.83
2018-12-29T10:01:35.108Z,30.73
2018-12-29T10:04:04.683Z,30.27
2018-12-29T10:06:33.491Z,29.73
2018-12-29T10:09:03.446Z,30.53
2018-12-29T10:11:32.257Z,29.27
2018-12-29T10:14:01.830Z,30.77
2018-12-29T10:16:30.708Z,30.87
2018-12-29T10:19:00.900Z,31.83
2018-12-29T10:21:29.813Z,29.90
2018-12-29T10:23:58.603Z,28.97
2018-12-29T10:26:27.407Z,30.47
2018-12-29T10:28:56.199Z,30.93
2018-12-29T10:31:24.988Z,31.60
2018-12-29T10:33:55.280Z,32.73
2018-12-29T10:36:22.649Z,30.83
2018-12-29T10:38:51.520Z,31.10
2018-12-29T10:41:20.843Z,30.50
2018-12-29T10:43:49.667Z,30.37
2018-12-29T10:46:19.179Z,31.30
2018-12-29T10:48:47.972Z,32.23
2018-12-29T10:51:16.758Z,31.50
2018-12-29T10:53:45.572Z,30.90
2018-12-29T10:56:14.438Z,28.70
2018-12-29T10:58:45.320Z,30.70
2018-12-29T11:01:14.140Z,31.20
2018-12-29T11:03:43.878Z,33.03
2018-12-29T11:06:13.675Z,31.80
2018-12-29T11:08:42.489Z,31.70
2018-12-29T11:11:11.310Z,31.47
2018-12-29T11:13:40.165Z,31.07
2018-12-29T11:16:11.154Z,31.13
2018-12-29T11:18:40.636Z,31.93
2018-12-29T11:21:10.439Z,31.67
2018-12-29T11:23:39.306Z,32.70
2018-12-29T11:26:08.181Z,32.17
2018-12-29T11:28:37.042Z,31.00
2018-12-29T11:31:05.887Z,31.03
2018-12-29T11:33:34.794Z,32.30
2018-12-29T11:36:03.868Z,33.23
2018-12-29T11:38:32.716Z,30.90
2018-12-29T11:41:01.558Z,31.97
2018-12-29T11:43:30.812Z,32.10
2018-12-29T11:46:00.112Z,34.57
2018-12-29T11:48:28.920Z,34.87
2018-12-29T11:50:57.735Z,34.17
2018-12-29T11:53:26.625Z,33.90
2018-12-29T11:55:55.563Z,35.27
2018-12-29T11:58:29.584Z,34.33
2018-12-29T12:00:59.066Z,33.03
2018-12-29T12:03:27.874Z,33.73
2018-12-29T12:05:57.767Z,32.83
2018-12-29T12:08:26.554Z,34.57
2018-12-29T12:10:55.412Z,33.47
2018-12-29T12:13:24.255Z,33.10
2018-12-29T12:15:53.067Z,35.33
2018-12-29T12:18:23.882Z,35.07
2018-12-29T12:20:52.679Z,35.93
2018-12-29T12:23:21.508Z,34.33
2018-12-29T12:25:50.403Z,34.07
2018-12-29T12:28:19.177Z,37.83
2018-12-29T12:30:47.971Z,36.27
2018-12-29T12:33:17.515Z,32.90
2018-12-29T12:35:46.299Z,34.33
2018-12-29T12:38:15.119Z,35.13
2018-12-29T12:40:43.974Z,35.00
2018-12-29T12:43:12.809Z,34.60
2018-12-29T12:45:41.614Z,35.47
2018-12-29T12:48:10.402Z,35.07
2018-12-29T12:50:39.192Z,34.90
2018-12-29T12:53:08.155Z,32.67
2018-12-29T12:55:37.053Z,35.80
2018-12-29T12:58:05.956Z,36.67
2018-12-29T13:00:34.888Z,36.30
2018-12-29T13:03:03.727Z,35.50
2018-12-29T13:05:32.523Z,34.57
2018-12-29T13:08:01.317Z,32.70
2018-12-29T13:10:30.611Z,32.47
2018-12-29T13:13:00.185Z,33.93
2018-12-29T13:15:29.588Z,32.07
2018-12-29T13:17:58.360Z,31.80
2018-12-29T13:20:27.820Z,36.00
2018-12-29T13:22:56.727Z,32.30
2018-12-29T13:25:27.240Z,35.13
2018-12-29T13:27:56.091Z,34.33
2018-12-29T13:30:24.906Z,35.40
2018-12-29T13:32:54.324Z,32.83
2018-12-29T13:35:23.128Z,34.33
2018-12-29T13:37:51.927Z,34.77
2018-12-29T13:40:20.742Z,36.73
2018-12-29T13:42:56.604Z,33.60
2018-12-29T13:45:25.599Z,36.50
2018-12-29T13:47:54.388Z,36.73
2018-12-29T13:50:23.305Z,35.03
2018-12-29T13:52:52.228Z,35.87
2018-12-29T13:55:21.031Z,35.53
2018-12-29T13:57:49.844Z,36.80
2018-12-29T14:00:18.672Z,36.53
2018-12-29T14:02:47.481Z,36.80
2018-12-29T14:05:16.316Z,36.50
2018-12-29T14:07:45.824Z,36.27
2018-12-29T14:10:14.811Z,36.90
2018-12-29T14:12:43.625Z,39.37
2018-12-29T14:15:12.522Z,40.30
2018-12-29T14:17:41.326Z,41.50
2018-12-29T14:20:10.124Z,41.47
2018-12-29T14:22:39.886Z,41.23
2018-12-29T14:25:08.795Z,40.13
2018-12-29T14:27:37.685Z,40.10
2018-12-29T14:30:06.555Z,40.83
2018-12-29T14:32:35.427Z,40.47
2018-12-29T14:35:04.287Z,41.17
2018-12-29T14:37:33.095Z,41.87
2018-12-29T14:40:01.896Z,43.10
2018-12-29T14:42:31.743Z,41.60
2018-12-29T14:45:00.605Z,40.53
2018-12-29T14:47:29.456Z,41.57
2018-12-29T14:49:58.298Z,41.70
2018-12-29T14:52:27.108Z,39.70
2018-12-29T14:54:55.943Z,40.20
2018-12-29T14:57:24.743Z,41.50
2018-12-29T14:59:53.554Z,40.67
2018-12-29T15:02:22.358Z,44.97
2018-12-29T15:04:52.732Z,43.07
2018-12-29T15:07:20.085Z,44.33
2018-12-29T15:09:55.812Z,41.97
2018-12-29T15:12:24.636Z,42.40
2018-12-29T15:14:53.431Z,45.00
2018-12-29T15:17:22.216Z,43.87
2018-12-29T15:19:51.423Z,61.07
2018-12-29T15:22:21.979Z,48.13
2018-12-29T15:24:50.823Z,45.63
2018-12-29T15:27:23.327Z,47.60
2018-12-29T15:29:55.935Z,44.60
2018-12-29T15:32:24.721Z,44.67
2018-12-29T15:34:53.619Z,42.57
2018-12-29T15:37:22.446Z,41.70
2018-12-29T15:39:51.315Z,43.50
2018-12-29T15:42:20.795Z,44.87
2018-12-29T15:44:51.591Z,40.00
2018-12-29T15:47:22.173Z,42.17
2018-12-29T15:49:50.949Z,42.83
2018-12-29T15:52:19.774Z,44.20
2018-12-29T15:54:48.559Z,42.23
2018-12-29T15:57:17.459Z,40.93
2018-12-29T15:59:46.920Z,42.03
2018-12-29T16:02:20.500Z,51.27
2018-12-29T16:04:49.299Z,45.40
2018-12-29T16:07:18.103Z,43.10
2018-12-29T16:09:46.943Z,42.23
2018-12-29T16:12:15.710Z,42.67
2018-12-29T16:14:45.852Z,42.00
2018-12-29T16:17:13.391Z,41.23
2018-12-29T16:19:42.976Z,44.80
2018-12-29T16:22:13.009Z,42.57
2018-12-29T16:24:42.094Z,37.80
2018-12-29T16:27:11.672Z,41.37
2018-12-29T16:29:40.483Z,40.73
2018-12-29T16:32:09.311Z,41.50
2018-12-29T16:34:38.374Z,45.10
2018-12-29T16:37:07.175Z,47.53
2018-12-29T16:39:36.322Z,46.27
2018-12-29T16:42:05.220Z,44.77
2018-12-29T16:44:34.708Z,60.97
2018-12-29T16:47:03.514Z,42.17
2018-12-29T16:49:32.491Z,44.30
2018-12-29T16:52:02.944Z,39.67
2018-12-29T16:54:31.840Z,42.53
2018-12-29T16:57:00.733Z,42.90
2018-12-29T16:59:29.687Z,41.30
2018-12-29T17:01:58.524Z,38.80
2018-12-29T17:04:27.551Z,38.53
2018-12-29T17:06:56.382Z,37.87
2018-12-29T17:09:25.160Z,40.53
2018-12-29T17:12:03.031Z,38.17
2018-12-29T17:14:33.243Z,34.17
2018-12-29T17:17:25.821Z,34.63
2018-12-29T17:19:55.375Z,32.87
2018-12-29T17:22:24.278Z,35.90
2018-12-29T17:24:54.065Z,31.27
2018-12-29T17:27:22.861Z,30.37
2018-12-29T17:29:51.680Z,30.87
2018-12-29T17:32:22.352Z,25.93
2018-12-29T17:34:51.198Z,25.57
2018-12-29T17:37:19.984Z,25.77
2018-12-29T17:39:48.823Z,26.10
2018-12-29T17:42:17.703Z,22.43
2018-12-29T17:44:46.529Z,26.70
2018-12-29T17:47:19.027Z,23.83
2018-12-29T17:49:48.859Z,21.37
2018-12-29T17:52:18.203Z,21.93
2018-12-29T17:54:47.033Z,20.77
2018-12-29T17:57:15.848Z,21.47
2018-12-29T17:59:46.338Z,20.30
2018-12-29T18:02:15.828Z,21.80
2018-12-29T18:04:45.122Z,19.13
2018-12-29T18:07:13.957Z,19.00
2018-12-29T18:09:43.026Z,18.07
2018-12-29T18:12:11.904Z,17.63
2018-12-29T18:14:40.707Z,17.30
2018-12-29T18:17:09.514Z,15.23
2018-12-29T18:19:38.352Z,13.93
2018-12-29T18:22:07.189Z,10.03
2018-12-29T18:24:35.951Z,10.73
2018-12-29T18:27:04.750Z,8.17
2018-12-29T18:29:34.524Z,9.90
2018-12-29T18:32:03.359Z,6.63
2018-12-29T18:34:32.312Z,6.10
2018-12-29T18:37:01.281Z,6.17
2018-12-29T18:39:30.153Z,4.53
2018-12-29T18:41:58.937Z,4.63
2018-12-29T18:44:27.831Z,5.03
2018-12-29T18:46:56.638Z,5.23
2018-12-29T18:49:25.432Z,5.87
2018-12-29T18:51:54.281Z,6.50
2018-12-29T18:54:23.108Z,5.73
2018-12-29T18:56:52.058Z,5.10
2018-12-29T18:59:20.906Z,5.10
2018-12-29T19:01:57.401Z,5.80
2018-12-29T19:04:18.610Z,108.27
2018-12-29T19:06:48.235Z,7.17
2018-12-29T19:09:16.332Z,7.30
2018-12-29T19:11:45.144Z,5.17
2018-12-29T19:14:14.008Z,5.67
2018-12-29T19:16:43.298Z,8.27
2018-12-29T19:19:12.165Z,5.93
2018-12-29T19:21:40.966Z,5.93
2018-12-29T19:24:09.807Z,5.00
2018-12-29T19:26:38.731Z,5.93
2018-12-29T19:29:07.546Z,4.43
2018-12-29T19:31:44.211Z,6.00
2018-12-29T19:34:05.367Z,5.30
2018-12-29T19:36:34.276Z,5.67
2018-12-29T19:39:03.186Z,6.77
2018-12-29T19:41:31.977Z,7.17
2018-12-29T19:44:00.760Z,6.43
2018-12-29T19:46:29.614Z,5.97
2018-12-29T19:48:58.523Z,5.83
2018-12-29T19:51:27.311Z,5.77
2018-12-29T19:53:56.672Z,6.63
2018-12-29T19:56:25.512Z,6.60
2018-12-29T19:58:54.347Z,5.33
2018-12-29T20:01:23.207Z,5.70
2018-12-29T20:03:52.032Z,5.50
2018-12-29T20:06:21.519Z,4.73
2018-12-29T20:08:50.452Z,4.40
2018-12-29T20:11:19.309Z,5.37
2018-12-29T20:13:48.271Z,5.27
2018-12-29T20:16:17.232Z,4.50
2018-12-29T20:18:46.115Z,4.70
2018-12-29T20:21:14.924Z,4.77
2018-12-29T20:23:43.808Z,4.63
2018-12-29T20:26:12.640Z,4.37
2018-12-29T20:28:41.590Z,4.70
2018-12-29T20:31:10.451Z,5.47
2018-12-29T20:33:39.283Z,6.30
2018-12-29T20:36:08.111Z,5.80
2018-12-29T20:38:36.951Z,4.80
2018-12-29T20:41:05.843Z,6.50
2018-12-29T20:43:34.635Z,6.20
2018-12-29T20:46:03.465Z,5.90
2018-12-29T20:48:32.275Z,6.00
2018-12-29T20:51:01.139Z,6.43
2018-12-29T20:53:29.958Z,6.30
2018-12-29T20:56:03.036Z,5.97
2018-12-29T20:58:32.743Z,8.10
2018-12-29T21:01:02.115Z,6.43
2018-12-29T21:03:30.924Z,6.20
2018-12-29T21:05:59.795Z,5.70
2018-12-29T21:08:28.583Z,5.87
2018-12-29T21:10:57.415Z,5.00
2018-12-29T21:13:26.242Z,7.07
2018-12-29T21:15:58.655Z,5.40
2018-12-29T21:18:27.558Z,4.77
2018-12-29T21:20:56.336Z,5.93
2018-12-29T21:23:26.355Z,4.27
2018-12-29T21:25:55.153Z,5.73
2018-12-29T21:28:24.009Z,6.47
2018-12-29T21:30:53.375Z,9.13
2018-12-29T21:33:22.208Z,8.33
2018-12-29T21:35:51.712Z,5.63
2018-12-29T21:38:20.495Z,5.03
2018-12-29T21:40:49.322Z,5.17
2018-12-29T21:43:18.211Z,6.07
2018-12-29T21:45:47.052Z,5.47
2018-12-29T21:48:15.858Z,4.97
2018-12-29T21:50:44.728Z,4.97
2018-12-29T21:53:15.425Z,5.27
2018-12-29T21:55:44.216Z,5.33
2018-12-29T21:58:13.028Z,5.57
2018-12-29T22:00:41.792Z,7.87
2018-12-29T22:03:10.610Z,6.93
2018-12-29T22:05:39.455Z,6.73
2018-12-29T22:08:08.392Z,4.90
2018-12-29T22:10:37.219Z,5.83
2018-12-29T22:13:06.054Z,6.27
2018-12-29T22:15:34.837Z,5.33
2018-12-29T22:18:03.624Z,4.83
2018-12-29T22:20:33.420Z,5.87
2018-12-29T22:23:01.844Z,6.00
2018-12-29T22:25:30.627Z,6.07
2018-12-29T22:27:59.461Z,5.73
2018-12-29T22:30:28.344Z,6.23
2018-12-29T22:32:57.116Z,6.47
2018-12-29T22:35:25.956Z,5.77
2018-12-29T22:37:54.744Z,5.97
2018-12-29T22:40:23.588Z,6.70
2018-12-29T22:42:53.747Z,5.60
2018-12-29T22:45:22.535Z,6.23
2018-12-29T22:47:51.352Z,6.47
2018-12-29T22:50:20.128Z,6.80
2018-12-29T22:52:48.920Z,5.50
2018-12-29T22:55:17.792Z,6.30
2018-12-29T22:57:46.579Z,5.83
2018-12-29T23:00:20.372Z,5.83
2018-12-29T23:02:49.995Z,5.93
2018-12-29T23:05:18.788Z,6.03
2018-12-29T23:07:47.601Z,6.97
2018-12-29T23:10:16.410Z,5.87
2018-12-29T23:12:45.205Z,6.80
2018-12-29T23:15:14.019Z,6.50
2018-12-29T23:17:42.815Z,6.57
2018-12-29T23:20:11.676Z,6.73
2018-12-29T23:22:41.194Z,6.40
2018-12-29T23:25:10.023Z,6.03
2018-12-29T23:27:38.807Z,5.40
2018-12-29T23:30:07.587Z,6.47
2018-12-29T23:32:36.444Z,6.00
2018-12-29T23:35:05.295Z,6.37
2018-12-29T23:37:34.802Z,5.60
2018-12-29T23:40:03.636Z,6.00
2018-12-29T23:42:32.464Z,7.23
2018-12-29T23:45:01.333Z,5.67
2018-12-29T23:47:30.223Z,6.77
2018-12-29T23:49:59.009Z,6.13
2018-12-29T23:52:29.007Z,6.83
2018-12-29T23:54:57.701Z,6.00
2018-12-29T23:57:27.400Z,6.53
2018-12-29T23:59:56.181Z,5.93
